createdAt,value
2023-03-26T00:01:41.877Z,2.10
2023-03-26T00:04:09.502Z,3.70
2023-03-26T00:06:40.055Z,1.98
2023-03-26T00:09:10.373Z,2.15
2023-03-26T00:11:37.733Z,1.92
2023-03-26T00:14:05.822Z,3.55
2023-03-26T00:16:33.665Z,2.22
2023-03-26T00:19:01.983Z,1.90
2023-03-26T00:21:30.838Z,1.92
2023-03-26T00:24:07.791Z,1.90
2023-03-26T00:26:36.101Z,2.53
2023-03-26T00:29:04.370Z,2.35
2023-03-26T00:31:32.157Z,2.22
2023-03-26T00:34:03.382Z,2.22
2023-03-26T00:36:30.681Z,2.30
2023-03-26T00:38:57.945Z,4.05
2023-03-26T00:41:27.232Z,1.92
2023-03-26T00:43:56.830Z,3.65
2023-03-26T00:46:29.912Z,2.80
2023-03-26T00:49:00.466Z,2.67
2023-03-26T00:51:29.280Z,2.30
2023-03-26T00:53:57.991Z,2.58
2023-03-26T00:56:26.409Z,2.33
2023-03-26T00:58:53.830Z,2.97
2023-03-26T01:01:28.038Z,2.53
2023-03-26T01:04:08.764Z,2.38
2023-03-26T01:06:39.701Z,3.17
2023-03-26T01:09:21.300Z,2.30
2023-03-26T01:11:49.934Z,2.92
2023-03-26T01:14:21.071Z,2.55
2023-03-26T01:16:55.335Z,2.58
2023-03-26T01:19:38.448Z,4.18
2023-03-26T01:22:12.220Z,2.75
2023-03-26T01:24:40.174Z,3.30
2023-03-26T01:27:21.123Z,4.38
2023-03-26T01:30:05.361Z,3.30
2023-03-26T01:32:50.711Z,2.95
2023-03-26T01:35:35.563Z,2.78
2023-03-26T01:38:28.107Z,3.03
2023-03-26T01:41:27.777Z,1.90
2023-03-26T01:44:13.675Z,2.10
2023-03-26T01:46:42.115Z,3.65
2023-03-26T01:49:13.652Z,2.67
2023-03-26T01:51:43.239Z,2.20
2023-03-26T01:54:20.095Z,3.08
2023-03-26T01:57:14.591Z,2.85
2023-03-26T02:00:01.937Z,2.65
2023-03-26T02:02:50.934Z,3.72
2023-03-26T02:05:26.034Z,2.60
2023-03-26T02:08:12.507Z,3.30
2023-03-26T02:10:44.614Z,2.90
2023-03-26T02:13:13.359Z,4.57
2023-03-26T02:15:41.394Z,2.40
2023-03-26T02:18:11.279Z,2.25
2023-03-26T02:20:39.288Z,1.73
2023-03-26T02:23:06.864Z,2.13
2023-03-26T02:25:35.637Z,1.52
2023-03-26T02:28:03.871Z,1.45
2023-03-26T02:30:33.807Z,2.05
2023-03-26T02:33:01.259Z,2.90
2023-03-26T02:35:28.586Z,1.52
2023-03-26T02:37:56.352Z,1.70
2023-03-26T02:40:23.681Z,1.25
2023-03-26T02:42:51.192Z,0.93
2023-03-26T02:45:18.444Z,0.95
2023-03-26T02:47:46.281Z,1.95
2023-03-26T02:50:13.487Z,1.50
2023-03-26T02:52:40.858Z,1.58
2023-03-26T02:55:08.442Z,1.95
2023-03-26T02:57:35.923Z,1.25
2023-03-26T03:00:14.405Z,1.45
2023-03-26T03:02:41.713Z,1.67
2023-03-26T03:05:09.473Z,1.40
2023-03-26T03:07:39.078Z,1.20
2023-03-26T03:10:08.878Z,1.90
2023-03-26T03:12:37.054Z,2.00
2023-03-26T03:15:04.673Z,1.88
2023-03-26T03:17:31.843Z,1.48
2023-03-26T03:19:59.244Z,2.28
2023-03-26T03:22:26.531Z,2.08
2023-03-26T03:24:57.955Z,3.03
2023-03-26T03:27:26.417Z,1.90
2023-03-26T03:29:53.925Z,1.85
2023-03-26T03:32:22.878Z,4.28
2023-03-26T03:34:51.325Z,1.65
2023-03-26T03:37:19.537Z,2.53
2023-03-26T03:39:47.004Z,1.70
2023-03-26T03:42:14.285Z,3.42
2023-03-26T03:44:41.430Z,1.42
2023-03-26T03:47:11.362Z,1.63
2023-03-26T03:49:38.411Z,1.83
2023-03-26T03:52:06.078Z,1.45
2023-03-26T03:54:33.514Z,1.50
2023-03-26T03:57:02.329Z,1.95
2023-03-26T03:59:29.488Z,1.30
2023-03-26T04:01:56.893Z,2.08
2023-03-26T04:04:24.966Z,2.08
2023-03-26T04:06:52.817Z,1.60
2023-03-26T04:09:20.077Z,2.33
2023-03-26T04:11:47.317Z,1.25
2023-03-26T04:14:14.522Z,2.08
2023-03-26T04:16:41.955Z,3.30
2023-03-26T04:19:09.089Z,2.53
2023-03-26T04:21:38.053Z,1.95
2023-03-26T04:24:06.234Z,1.58
2023-03-26T04:26:33.381Z,1.38
2023-03-26T04:29:03.745Z,1.65
2023-03-26T04:31:31.305Z,1.58
2023-03-26T04:34:06.105Z,2.83
2023-03-26T04:36:34.513Z,1.95
2023-03-26T04:39:05.444Z,1.08
2023-03-26T04:41:33.105Z,1.65
2023-03-26T04:44:02.153Z,1.15
2023-03-26T04:46:33.751Z,1.42
2023-03-26T04:49:01.962Z,1.38
2023-03-26T04:51:38.694Z,1.73
2023-03-26T04:54:08.199Z,1.50
2023-03-26T04:56:44.080Z,1.20
2023-03-26T04:59:18.412Z,2.47
2023-03-26T05:01:48.272Z,1.80
2023-03-26T05:04:15.669Z,1.60
2023-03-26T05:06:43.243Z,1.77
2023-03-26T05:09:11.256Z,1.63
2023-03-26T05:11:38.740Z,1.40
2023-03-26T05:14:05.922Z,1.83
2023-03-26T05:16:34.301Z,1.77
2023-03-26T05:19:01.494Z,1.70
2023-03-26T05:21:28.609Z,1.80
2023-03-26T05:23:55.819Z,1.92
2023-03-26T05:26:23.057Z,1.85
2023-03-26T05:28:50.550Z,1.67
2023-03-26T05:31:21.515Z,2.17
2023-03-26T05:33:49.652Z,2.10
2023-03-26T05:36:17.677Z,2.72
2023-03-26T05:38:50.339Z,2.80
2023-03-26T05:41:17.952Z,2.03
2023-03-26T05:43:46.046Z,2.05
2023-03-26T05:46:14.220Z,2.35
2023-03-26T05:48:41.528Z,2.17
2023-03-26T05:51:09.258Z,2.45
2023-03-26T05:53:36.734Z,1.77
2023-03-26T05:56:04.740Z,3.30
2023-03-26T05:58:34.001Z,2.30
2023-03-26T06:01:08.711Z,2.50
2023-03-26T06:03:40.114Z,2.38
2023-03-26T06:06:15.986Z,2.45
2023-03-26T06:08:49.149Z,2.10
2023-03-26T06:11:30.644Z,2.60
2023-03-26T06:13:58.526Z,2.03
2023-03-26T06:16:27.066Z,2.75
2023-03-26T06:18:56.964Z,2.85
2023-03-26T06:21:26.813Z,2.55
2023-03-26T06:23:54.837Z,2.45
2023-03-26T06:26:22.570Z,1.70
2023-03-26T06:28:50.033Z,1.55
2023-03-26T06:31:19.424Z,1.80
2023-03-26T06:33:47.141Z,1.45
2023-03-26T06:36:14.385Z,1.25
2023-03-26T06:38:42.084Z,1.30
2023-03-26T06:41:09.377Z,1.48
2023-03-26T06:43:37.767Z,1.83
2023-03-26T06:46:05.338Z,2.08
2023-03-26T06:48:32.640Z,1.15
2023-03-26T06:50:59.878Z,1.75
2023-03-26T06:53:27.081Z,1.58
2023-03-26T06:55:54.864Z,1.30
2023-03-26T06:58:22.795Z,1.23
2023-03-26T07:00:54.956Z,1.17
2023-03-26T07:03:23.462Z,1.15
2023-03-26T07:05:50.586Z,1.63
2023-03-26T07:08:17.706Z,1.55
2023-03-26T07:10:45.214Z,1.90
2023-03-26T07:13:12.514Z,2.03
2023-03-26T07:15:39.826Z,1.60
2023-03-26T07:18:07.228Z,2.40
2023-03-26T07:20:34.883Z,1.40
2023-03-26T07:23:02.413Z,1.52
2023-03-26T07:25:30.130Z,1.50
2023-03-26T07:28:13.533Z,1.33
2023-03-26T07:31:00.942Z,2.58
2023-03-26T07:33:34.957Z,1.70
2023-03-26T07:36:14.709Z,1.77
2023-03-26T07:39:14.933Z,1.88
2023-03-26T07:41:58.933Z,1.65
2023-03-26T07:44:35.896Z,1.67
2023-03-26T07:47:15.703Z,1.92
2023-03-26T07:49:43.645Z,2.05
2023-03-26T07:52:11.949Z,1.63
2023-03-26T07:54:39.240Z,1.40
2023-03-26T07:57:19.869Z,1.67
2023-03-26T07:59:55.282Z,1.83
2023-03-26T08:02:48.513Z,1.65
2023-03-26T08:05:43.958Z,2.08
2023-03-26T08:08:23.118Z,1.88
2023-03-26T08:11:13.169Z,3.63
2023-03-26T08:13:57.380Z,1.85
2023-03-26T08:16:36.738Z,2.08
2023-03-26T08:19:42.441Z,1.52
2023-03-26T08:22:36.923Z,3.13
2023-03-26T08:25:07.336Z,1.38
2023-03-26T08:28:02.907Z,1.85
2023-03-26T08:30:31.392Z,1.85
2023-03-26T08:33:20.957Z,2.05
2023-03-26T08:35:49.233Z,2.03
2023-03-26T08:38:19.376Z,1.65
2023-03-26T08:41:23.622Z,3.25
2023-03-26T08:43:59.877Z,1.42
2023-03-26T08:47:05.535Z,1.42
2023-03-26T08:50:14.411Z,2.10
2023-03-26T08:53:03.055Z,3.75
2023-03-26T08:55:56.332Z,1.50
2023-03-26T08:58:42.671Z,2.10
2023-03-26T09:01:12.874Z,1.98
2023-03-26T09:04:00.132Z,2.72
2023-03-26T09:06:56.667Z,1.42
2023-03-26T09:09:42.816Z,2.47
2023-03-26T09:12:28.481Z,2.28
2023-03-26T09:18:28.086Z,1.50
2023-03-26T09:21:27.649Z,2.13
2023-03-26T09:23:58.435Z,1.98
2023-03-26T09:26:48.311Z,1.83
2023-03-26T09:29:40.146Z,3.30
2023-03-26T09:32:31.248Z,2.05
2023-03-26T09:35:07.215Z,1.77
2023-03-26T09:37:59.557Z,3.10
2023-03-26T09:40:37.570Z,2.13
2023-03-26T09:43:37.119Z,1.40
2023-03-26T09:46:41.489Z,2.00
2023-03-26T09:49:29.531Z,3.75
2023-03-26T09:52:05.985Z,2.28
2023-03-26T09:54:46.804Z,2.10
2023-03-26T09:57:41.399Z,2.65
2023-03-26T10:00:27.004Z,3.50
2023-03-26T10:03:14.340Z,3.58
2023-03-26T10:06:16.866Z,2.65
2023-03-26T10:09:06.828Z,1.83
2023-03-26T10:11:43.762Z,2.85
2023-03-26T10:14:29.215Z,2.85
2023-03-26T10:17:17.983Z,2.25
2023-03-26T10:20:13.427Z,3.40
2023-03-26T10:23:02.005Z,3.97
2023-03-26T10:25:51.121Z,2.65
2023-03-26T10:28:56.870Z,2.67
2023-03-26T10:31:57.841Z,2.47
2023-03-26T10:34:30.755Z,1.90
2023-03-26T10:37:08.632Z,2.88
2023-03-26T10:40:10.326Z,3.20
2023-03-26T10:43:07.890Z,3.67
2023-03-26T10:46:04.292Z,2.53
2023-03-26T10:48:49.275Z,2.42
2023-03-26T10:51:43.369Z,2.65
2023-03-26T10:54:39.569Z,2.65
2023-03-26T10:59:37.877Z,2.58
2023-03-26T11:02:33.576Z,3.25
2023-03-26T11:05:20.003Z,2.97
2023-03-26T11:08:07.212Z,3.92
2023-03-26T11:10:51.509Z,2.33
2023-03-26T11:13:56.268Z,2.45
2023-03-26T11:16:31.788Z,3.40
2023-03-26T11:19:21.970Z,3.05
2023-03-26T11:21:58.086Z,3.00
2023-03-26T11:25:05.183Z,3.17
2023-03-26T11:27:54.795Z,4.25
2023-03-26T11:30:49.326Z,3.58
2023-03-26T11:33:25.098Z,4.32
2023-03-26T11:35:59.659Z,3.40
2023-03-26T11:38:52.508Z,4.43
2023-03-26T11:41:23.878Z,4.60
2023-03-26T11:44:03.342Z,1.95
2023-03-26T11:46:33.651Z,3.00
2023-03-26T11:49:11.678Z,3.45
2023-03-26T11:51:46.392Z,3.72
2023-03-26T11:54:14.162Z,4.15
2023-03-26T11:57:23.828Z,2.38
2023-03-26T12:02:42.533Z,1.88
2023-03-26T12:05:20.697Z,2.63
2023-03-26T12:08:00.393Z,2.88
2023-03-26T12:10:52.376Z,2.65
2023-03-26T12:13:37.983Z,3.15
2023-03-26T12:16:11.777Z,3.20
2023-03-26T12:18:48.061Z,2.90
2023-03-26T12:21:20.726Z,3.08
2023-03-26T12:24:15.387Z,3.17
2023-03-26T12:26:49.830Z,2.92
2023-03-26T12:32:16.657Z,2.55
2023-03-26T12:34:46.658Z,2.53
2023-03-26T12:37:54.242Z,2.63
2023-03-26T12:40:37.581Z,3.35
2023-03-26T12:44:53.520Z,4.03
2023-03-26T12:47:56.539Z,3.15
2023-03-26T12:49:19.175Z,1.98
2023-03-26T12:52:16.088Z,3.15
2023-03-26T12:55:12.247Z,3.25
2023-03-26T12:58:13.241Z,2.92
2023-03-26T13:00:56.954Z,2.28
2023-03-26T13:03:48.692Z,4.20
2023-03-26T13:06:59.141Z,2.90
2023-03-26T13:09:47.829Z,2.67
2023-03-26T13:12:36.266Z,2.00
2023-03-26T13:15:17.369Z,3.70
2023-03-26T13:17:56.588Z,2.10
2023-03-26T13:20:45.786Z,2.58
2023-03-26T13:23:36.069Z,2.63
2023-03-26T13:26:28.650Z,2.45
2023-03-26T13:29:26.076Z,2.45
2023-03-26T13:32:09.317Z,2.42
2023-03-26T13:34:49.763Z,3.08
2023-03-26T13:37:33.508Z,2.30
2023-03-26T13:40:26.040Z,2.78
2023-03-26T13:46:35.832Z,2.60
2023-03-26T13:49:42.806Z,2.53
2023-03-26T13:52:34.988Z,1.88
2023-03-26T13:55:30.163Z,3.78
2023-03-26T13:58:34.470Z,3.83
2023-03-26T14:01:13.419Z,2.50
2023-03-26T14:04:02.225Z,2.55
2023-03-26T14:06:57.789Z,2.15
2023-03-26T14:09:52.983Z,2.17
2023-03-26T14:12:29.821Z,3.63
2023-03-26T14:15:05.162Z,3.15
2023-03-26T14:26:34.121Z,2.72
2023-03-26T14:29:56.985Z,3.33
2023-03-26T14:32:31.618Z,2.03
2023-03-26T14:35:32.276Z,2.97
2023-03-26T14:42:03.325Z,2.50
2023-03-26T14:54:32.763Z,2.35
2023-03-26T15:00:21.941Z,2.83
2023-03-26T15:03:08.298Z,3.00
2023-03-26T15:06:23.397Z,1.80
2023-03-26T15:09:24.920Z,2.15
2023-03-26T15:12:12.098Z,3.78
2023-03-26T15:14:49.958Z,2.47
2023-03-26T15:17:50.180Z,4.03
2023-03-26T15:20:55.023Z,3.47
2023-03-26T15:23:54.370Z,3.17
2023-03-26T15:26:50.228Z,2.78
2023-03-26T15:29:59.196Z,2.40
2023-03-26T15:32:35.537Z,2.53
2023-03-26T15:35:12.862Z,3.50
2023-03-26T15:38:23.931Z,3.05
2023-03-26T15:40:57.511Z,2.70
2023-03-26T15:43:44.506Z,2.58
2023-03-26T15:46:39.091Z,3.40
2023-03-26T15:49:35.920Z,3.25
2023-03-26T15:52:24.441Z,2.63
2023-03-26T15:54:54.520Z,3.38
2023-03-26T15:57:31.373Z,2.63
2023-03-26T16:00:23.050Z,3.83
2023-03-26T16:03:11.457Z,2.10
2023-03-26T16:05:57.572Z,2.05
2023-03-26T16:08:47.286Z,2.13
2023-03-26T16:11:15.776Z,2.10
2023-03-26T16:14:28.113Z,1.83
2023-03-26T16:17:01.768Z,2.50
2023-03-26T16:19:58.650Z,1.95
2023-03-26T16:22:42.361Z,2.38
2023-03-26T16:25:33.556Z,3.05
2023-03-26T16:28:12.698Z,3.35
2023-03-26T16:30:42.374Z,2.20
2023-03-26T16:33:17.925Z,2.05
2023-03-26T16:36:02.540Z,3.42
2023-03-26T16:38:54.091Z,1.90
2023-03-26T16:41:28.912Z,3.35
2023-03-26T16:44:13.167Z,2.75
2023-03-26T16:47:05.692Z,1.95
2023-03-26T16:49:48.412Z,1.92
2023-03-26T16:52:50.835Z,3.13
2023-03-26T16:55:34.793Z,3.17
2023-03-26T16:58:36.408Z,2.10
2023-03-26T17:01:35.055Z,2.90
2023-03-26T17:04:31.176Z,2.20
2023-03-26T17:07:27.765Z,2.75
2023-03-26T17:13:23.657Z,1.88
2023-03-26T17:16:19.200Z,2.30
2023-03-26T17:18:46.468Z,1.80
2023-03-26T17:21:52.399Z,1.98
2023-03-26T17:25:08.066Z,2.30
2023-03-26T17:28:20.608Z,3.42
2023-03-26T17:30:57.928Z,1.73
2023-03-26T17:33:35.215Z,2.38
2023-03-26T17:36:12.241Z,1.85
2023-03-26T17:38:39.809Z,4.25
2023-03-26T17:41:35.231Z,2.33
2023-03-26T17:44:29.065Z,3.30
2023-03-26T17:46:58.338Z,3.08
2023-03-26T17:49:31.604Z,3.40
2023-03-26T17:52:15.419Z,2.95
2023-03-26T17:54:52.985Z,2.10
2023-03-26T17:57:28.551Z,2.75
2023-03-26T18:00:01.165Z,4.90
2023-03-26T18:02:41.718Z,2.90
2023-03-26T18:05:12.505Z,2.75
2023-03-26T18:08:04.843Z,2.45
2023-03-26T18:11:09.535Z,2.35
2023-03-26T18:14:05.127Z,3.28
2023-03-26T18:16:46.114Z,2.75
2023-03-26T18:19:23.297Z,2.60
2023-03-26T18:21:53.440Z,3.28
2023-03-26T18:24:31.792Z,2.70
2023-03-26T18:27:04.719Z,2.08
2023-03-26T18:29:36.783Z,2.50
2023-03-26T18:32:22.781Z,3.03
2023-03-26T18:34:57.193Z,2.60
2023-03-26T18:37:32.398Z,3.10
2023-03-26T18:40:16.910Z,2.30
2023-03-26T18:42:51.832Z,1.85
2023-03-26T18:45:36.380Z,3.20
2023-03-26T18:48:35.026Z,1.95
2023-03-26T18:51:05.748Z,2.05
2023-03-26T18:53:48.970Z,1.65
2023-03-26T18:56:39.759Z,1.25
2023-03-26T18:59:28.306Z,2.15
2023-03-26T19:02:00.234Z,2.20
2023-03-26T19:04:32.000Z,1.70
2023-03-26T19:06:59.983Z,1.65
2023-03-26T19:09:31.960Z,2.35
2023-03-26T19:12:09.567Z,2.08
2023-03-26T19:14:54.550Z,2.97
2023-03-26T19:17:23.225Z,2.53
2023-03-26T19:19:51.321Z,2.53
2023-03-26T19:22:21.578Z,1.90
2023-03-26T19:24:51.648Z,1.35
2023-03-26T19:27:19.566Z,1.42
2023-03-26T19:29:47.266Z,2.08
2023-03-26T19:32:28.026Z,1.55
2023-03-26T19:34:55.442Z,1.50
2023-03-26T19:37:25.344Z,4.03
2023-03-26T19:40:05.807Z,2.05
2023-03-26T19:42:43.694Z,1.60
2023-03-26T19:45:23.404Z,3.30
2023-03-26T19:48:03.688Z,1.95
2023-03-26T19:50:43.604Z,1.50
2023-03-26T19:53:22.792Z,1.05
2023-03-26T19:56:10.681Z,1.50
2023-03-26T19:58:37.859Z,1.15
2023-03-26T20:01:08.143Z,1.20
2023-03-26T20:03:44.062Z,1.00
2023-03-26T20:06:14.336Z,1.10
2023-03-26T20:08:41.604Z,1.50
2023-03-26T20:11:19.854Z,1.55
2023-03-26T20:13:48.624Z,1.67
2023-03-26T20:16:27.447Z,0.75
2023-03-26T20:19:05.009Z,1.00
2023-03-26T20:21:34.983Z,1.02
2023-03-26T20:24:02.318Z,1.08
2023-03-26T20:26:29.530Z,1.15
2023-03-26T20:28:57.592Z,1.15
2023-03-26T20:31:26.967Z,1.08
2023-03-26T20:33:54.584Z,0.90
2023-03-26T20:36:34.078Z,0.90
2023-03-26T20:39:06.156Z,0.95
2023-03-26T20:41:34.792Z,0.80
2023-03-26T20:44:05.277Z,0.80
2023-03-26T20:46:33.855Z,0.52
2023-03-26T20:49:01.077Z,1.08
2023-03-26T20:51:29.056Z,1.05
2023-03-26T20:53:57.426Z,0.52
2023-03-26T20:56:25.025Z,1.02
2023-03-26T20:59:09.960Z,1.13
2023-03-26T21:01:38.577Z,0.40
2023-03-26T21:04:06.916Z,0.90
2023-03-26T21:06:34.376Z,0.60
2023-03-26T21:09:01.892Z,0.60
2023-03-26T21:11:39.430Z,0.73
2023-03-26T21:14:26.282Z,0.47
2023-03-26T21:16:54.446Z,0.50
2023-03-26T21:19:22.014Z,0.52
2023-03-26T21:22:16.759Z,0.63
2023-03-26T21:24:50.128Z,0.57
2023-03-26T21:27:36.465Z,0.50
2023-03-26T21:30:11.128Z,0.70
2023-03-26T21:32:38.790Z,0.85
2023-03-26T21:35:07.567Z,0.50
2023-03-26T21:37:35.335Z,0.80
2023-03-26T21:40:13.535Z,0.68
2023-03-26T21:42:42.496Z,0.95
2023-03-26T21:45:10.504Z,0.52
2023-03-26T21:47:38.234Z,1.33
2023-03-26T21:50:07.415Z,0.65
2023-03-26T21:52:35.315Z,1.02
2023-03-26T21:55:05.045Z,0.60
2023-03-26T21:58:04.556Z,0.73
2023-03-26T22:01:18.080Z,0.52
2023-03-26T22:03:55.478Z,0.45
2023-03-26T22:06:32.016Z,0.95
2023-03-26T22:09:00.112Z,0.98
2023-03-26T22:11:27.328Z,0.90
2023-03-26T22:13:55.925Z,0.70
2023-03-26T22:16:26.556Z,0.75
2023-03-26T22:18:54.182Z,0.85
2023-03-26T22:21:23.721Z,0.50
2023-03-26T22:23:54.788Z,0.63
2023-03-26T22:26:25.686Z,0.80
2023-03-26T22:28:53.418Z,0.70
2023-03-26T22:31:20.973Z,0.65
2023-03-26T22:33:50.278Z,0.80
2023-03-26T22:36:23.310Z,1.00
2023-03-26T22:38:54.186Z,1.17
2023-03-26T22:41:22.440Z,1.17
2023-03-26T22:43:52.278Z,0.93
2023-03-26T22:46:21.091Z,0.73
2023-03-26T22:48:51.778Z,0.70
2023-03-26T22:51:19.352Z,0.75
2023-03-26T22:53:46.704Z,0.93
2023-03-26T22:56:14.848Z,0.93
2023-03-26T22:58:42.679Z,2.47
2023-03-26T23:01:17.956Z,1.05
2023-03-26T23:03:45.857Z,0.70
2023-03-26T23:06:13.704Z,0.60
2023-03-26T23:08:41.979Z,1.02
2023-03-26T23:11:17.437Z,0.80
2023-03-26T23:13:45.587Z,1.80
2023-03-26T23:16:14.333Z,1.10
2023-03-26T23:18:41.823Z,0.98
2023-03-26T23:21:18.630Z,0.73
2023-03-26T23:23:47.382Z,4.88
2023-03-26T23:26:15.167Z,1.45
2023-03-26T23:28:43.580Z,0.90
2023-03-26T23:31:13.548Z,0.82
2023-03-26T23:33:47.989Z,0.90
2023-03-26T23:36:18.739Z,1.85
2023-03-26T23:38:48.552Z,0.93
2023-03-26T23:41:17.562Z,1.08
2023-03-26T23:43:53.784Z,0.77
2023-03-26T23:46:24.674Z,0.90
2023-03-26T23:48:52.848Z,0.98
2023-03-26T23:51:21.433Z,2.80
2023-03-26T23:53:49.879Z,1.02
2023-03-26T23:56:17.853Z,0.85
2023-03-26T23:58:45.124Z,1.15
